Time;durP1;ratioP1;P1;durP2;ratioP2;P2;SDS_P1;SDS_P2;PMS_P1;PMS_P2;Temp;Humidity;BMP_temperature;BMP_pressure;BME280_temperature;BME280_humidity;BME280_pressure;Samples;Min_cycle;Max_cycle;Signal;HPM_P1;HPM_P2
2021/09/18 00:00:12;;;;;;;7.88;3.85;;;13.80;99.90;;;;;;5092848;28;20039;-57
2021/09/18 00:02:38;;;;;;;7.07;4.85;;;13.80;99.90;;;;;;5093147;28;20047;-56
2021/09/18 00:05:04;;;;;;;8.95;5.43;;;13.90;99.90;;;;;;5093071;28;20044;-57
2021/09/18 00:07:30;;;;;;;9.02;5.70;;;13.90;99.90;;;;;;5092941;28;20046;-56
2021/09/18 00:09:55;;;;;;;12.27;7.60;;;13.90;99.90;;;;;;5092780;28;20528;-56
2021/09/18 00:12:21;;;;;;;7.65;4.00;;;13.90;99.90;;;;;;5092754;28;20036;-56
2021/09/18 00:14:46;;;;;;;3.22;2.35;;;13.90;99.90;;;;;;5093211;28;20459;-56
2021/09/18 00:17:12;;;;;;;3.92;2.20;;;13.80;99.90;;;;;;5092764;28;20557;-56
2021/09/18 00:19:38;;;;;;;6.75;2.13;;;13.90;99.90;;;;;;5092816;28;20034;-56
2021/09/18 00:22:04;;;;;;;2.30;2.00;;;13.90;99.90;;;;;;5092855;28;20044;-56
2021/09/18 00:24:30;;;;;;;3.55;2.15;;;13.90;99.90;;;;;;5092622;28;20048;-56
2021/09/18 00:26:55;;;;;;;2.40;2.00;;;13.90;99.90;;;;;;5092503;28;20055;-56
2021/09/18 00:29:21;;;;;;;3.70;2.53;;;13.80;99.90;;;;;;5092260;28;20048;-56
2021/09/18 00:31:47;;;;;;;5.18;2.33;;;13.80;99.90;;;;;;5092467;28;20432;-56
2021/09/18 00:34:12;;;;;;;3.78;2.63;;;13.80;99.90;;;;;;5092512;28;20040;-56
2021/09/18 00:36:38;;;;;;;3.20;2.08;;;13.80;99.90;;;;;;5092520;28;20116;-56
2021/09/18 00:39:03;;;;;;;3.17;1.80;;;13.80;99.90;;;;;;5092431;28;20481;-56
2021/09/18 00:41:29;;;;;;;2.58;1.80;;;13.80;99.90;;;;;;5092366;28;20200;-56
2021/09/18 00:43:57;;;;;;;3.88;2.75;;;13.80;99.90;;;;;;5092173;28;20035;-56
2021/09/18 00:46:23;;;;;;;3.55;2.00;;;13.80;99.90;;;;;;5092163;28;20044;-56
2021/09/18 00:48:49;;;;;;;5.85;2.33;;;13.80;99.90;;;;;;5092263;28;20100;-56
2021/09/18 00:51:17;;;;;;;3.08;2.20;;;13.80;99.90;;;;;;5092119;28;20055;-57
2021/09/18 00:53:44;;;;;;;3.25;1.48;;;13.80;99.90;;;;;;5092072;28;20123;-56
2021/09/18 00:56:10;;;;;;;6.28;2.63;;;13.80;99.90;;;;;;5092001;28;20040;-56
2021/09/18 00:58:36;;;;;;;3.35;1.85;;;13.80;99.90;;;;;;5092164;28;20044;-56
2021/09/18 01:01:02;;;;;;;8.57;3.08;;;13.80;99.90;;;;;;5092160;28;20088;-56
2021/09/18 01:03:28;;;;;;;5.38;2.13;;;13.70;99.90;;;;;;5091995;28;20093;-56
2021/09/18 01:05:57;;;;;;;2.45;1.90;;;13.70;99.90;;;;;;5090871;28;20428;-56
2021/09/18 01:08:24;;;;;;;6.40;1.75;;;13.70;99.90;;;;;;5091938;28;20488;-57
2021/09/18 01:10:51;;;;;;;4.47;2.00;;;13.60;99.90;;;;;;5092215;28;20079;-56
2021/09/18 01:13:18;;;;;;;3.47;1.80;;;13.60;99.90;;;;;;5092004;28;20040;-56
2021/09/18 01:15:45;;;;;;;4.30;1.80;;;13.70;99.90;;;;;;5092038;28;20040;-56
2021/09/18 01:18:11;;;;;;;2.90;1.63;;;13.60;99.90;;;;;;5091888;28;20032;-56
2021/09/18 01:20:39;;;;;;;3.20;1.92;;;13.50;99.90;;;;;;5091904;28;20036;-56
2021/09/18 01:23:06;;;;;;;3.03;1.70;;;13.60;99.90;;;;;;5091833;28;20111;-56
2021/09/18 01:25:36;;;;;;;4.35;2.47;;;13.60;99.90;;;;;;5091605;28;20052;-56
2021/09/18 01:28:03;;;;;;;6.43;1.90;;;13.50;99.90;;;;;;5091559;28;20052;-56
2021/09/18 01:30:31;;;;;;;6.55;2.13;;;13.60;99.90;;;;;;5091527;28;20044;-56
2021/09/18 01:32:58;;;;;;;3.25;1.90;;;13.60;99.90;;;;;;5091705;28;20089;-56
2021/09/18 01:35:24;;;;;;;4.75;2.25;;;13.60;99.90;;;;;;5090567;28;20040;-56
2021/09/18 01:37:50;;;;;;;5.80;2.10;;;13.50;99.90;;;;;;5091639;28;20123;-56
2021/09/18 01:40:27;;;;;;;6.95;2.20;;;13.50;99.90;;;;;;5091539;28;20127;-56
2021/09/18 01:42:54;;;;;;;5.60;2.20;;;13.50;99.90;;;;;;5091553;28;20496;-56
2021/09/18 01:45:20;;;;;;;3.97;2.30;;;13.50;99.90;;;;;;5091708;28;20040;-56
2021/09/18 01:47:48;;;;;;;5.80;2.40;;;13.50;99.90;;;;;;5091624;28;20075;-56
2021/09/18 01:50:29;;;;;;;2.80;2.05;;;13.50;99.90;;;;;;5091624;28;20032;-56
2021/09/18 01:52:59;;;;;;;3.17;1.92;;;13.40;99.90;;;;;;5091706;28;20052;-56
2021/09/18 01:55:26;;;;;;;3.40;2.20;;;13.40;99.90;;;;;;5091551;28;20032;-56
2021/09/18 01:57:54;;;;;;;4.35;2.20;;;13.30;99.90;;;;;;5091609;28;20397;-56
2021/09/18 02:00:20;;;;;;;4.43;2.53;;;13.40;99.90;;;;;;5091428;28;20486;-56
2021/09/18 02:02:47;;;;;;;3.30;2.35;;;13.40;99.90;;;;;;5091321;28;20485;-56
2021/09/18 02:05:15;;;;;;;2.90;2.35;;;13.40;99.90;;;;;;5091792;28;20470;-56
2021/09/18 02:07:41;;;;;;;4.38;2.35;;;13.50;99.90;;;;;;5091443;28;20032;-56
2021/09/18 02:10:09;;;;;;;4.28;2.10;;;13.60;99.90;;;;;;5091521;28;20089;-56
2021/09/18 02:12:35;;;;;;;5.85;2.33;;;13.60;99.90;;;;;;5091269;28;20405;-56
2021/09/18 02:15:01;;;;;;;4.70;2.50;;;13.60;99.90;;;;;;5091380;28;20036;-56
2021/09/18 02:17:27;;;;;;;4.82;2.38;;;13.60;99.90;;;;;;5076679;28;20410;-56
2021/09/18 02:19:53;;;;;;;4.45;2.40;;;13.50;99.90;;;;;;5095073;28;20079;-56
2021/09/18 02:22:18;;;;;;;4.20;2.42;;;13.60;99.90;;;;;;5095193;28;20067;-56
2021/09/18 02:24:44;;;;;;;5.22;2.50;;;13.60;99.90;;;;;;5094988;28;20371;-56
2021/09/18 02:27:09;;;;;;;12.43;2.47;;;13.60;99.90;;;;;;5094630;28;20430;-56
2021/09/18 02:29:35;;;;;;;4.72;2.55;;;13.60;99.90;;;;;;5094925;28;20044;-56
2021/09/18 02:32:01;;;;;;;5.95;2.38;;;13.60;99.90;;;;;;5094751;28;20043;-56
2021/09/18 02:34:26;;;;;;;3.78;2.10;;;13.70;99.90;;;;;;5094845;28;20047;-56
2021/09/18 02:36:52;;;;;;;3.67;2.17;;;13.60;99.90;;;;;;5095362;28;20039;-56
2021/09/18 02:39:17;;;;;;;4.32;1.92;;;13.60;99.90;;;;;;5094578;28;20541;-56
2021/09/18 02:41:43;;;;;;;5.10;2.60;;;13.60;99.90;;;;;;5093598;28;20043;-56
2021/09/18 02:44:09;;;;;;;3.88;2.47;;;13.70;99.90;;;;;;5094559;28;20035;-56
2021/09/18 02:46:34;;;;;;;4.30;2.45;;;13.70;99.90;;;;;;5094619;28;20066;-56
2021/09/18 02:49:00;;;;;;;4.68;2.20;;;13.70;99.90;;;;;;5094803;28;20047;-56
2021/09/18 02:51:25;;;;;;;4.03;2.35;;;13.70;99.90;;;;;;5094497;28;20036;-56
2021/09/18 02:53:52;;;;;;;5.60;2.22;;;13.70;99.90;;;;;;5094455;28;20063;-56
2021/09/18 02:56:18;;;;;;;4.40;2.30;;;13.60;99.90;;;;;;5094399;28;20040;-56
2021/09/18 02:58:44;;;;;;;5.22;3.17;;;13.70;99.90;;;;;;5094419;28;20042;-56
2021/09/18 03:01:09;;;;;;;2.78;2.03;;;13.60;99.90;;;;;;5092964;28;20040;-56
2021/09/18 03:03:35;;;;;;;3.17;2.45;;;13.60;99.90;;;;;;5094172;28;20051;-56
2021/09/18 03:06:00;;;;;;;3.22;2.65;;;13.60;99.90;;;;;;5094251;28;20543;-56
2021/09/18 03:08:26;;;;;;;4.15;2.50;;;13.60;99.90;;;;;;5094096;28;20086;-56
2021/09/18 03:10:52;;;;;;;3.70;2.40;;;13.60;99.90;;;;;;5094173;28;20115;-56
2021/09/18 03:13:18;;;;;;;3.30;2.47;;;13.60;99.90;;;;;;5094119;28;20044;-56
2021/09/18 03:15:43;;;;;;;7.78;2.40;;;13.60;99.90;;;;;;5094195;28;20036;-56
2021/09/18 03:18:09;;;;;;;2.33;2.13;;;13.70;99.90;;;;;;5093850;28;20367;-56
2021/09/18 03:20:35;;;;;;;6.22;1.92;;;13.70;99.90;;;;;;5094136;28;20040;-56
2021/09/18 03:23:00;;;;;;;4.40;2.25;;;13.70;99.90;;;;;;5093911;28;20036;-56
2021/09/18 03:25:26;;;;;;;4.63;2.60;;;13.60;99.90;;;;;;5093764;28;20081;-56
2021/09/18 03:27:52;;;;;;;5.82;2.28;;;13.60;99.90;;;;;;5092272;28;20121;-56
2021/09/18 03:30:17;;;;;;;3.53;1.92;;;13.70;99.90;;;;;;5093642;28;20048;-56
2021/09/18 03:32:43;;;;;;;3.50;1.75;;;13.60;99.90;;;;;;5093453;28;20036;-56
2021/09/18 03:35:09;;;;;;;4.22;1.80;;;13.60;99.90;;;;;;5093421;28;20051;-56
2021/09/18 03:37:35;;;;;;;3.30;2.03;;;13.60;99.90;;;;;;5093315;28;20088;-56
2021/09/18 03:40:03;;;;;;;4.45;1.85;;;13.60;99.90;;;;;;5093587;28;20119;-56
2021/09/18 03:42:29;;;;;;;4.55;1.77;;;13.60;99.90;;;;;;5093474;28;20044;-56
2021/09/18 03:44:54;;;;;;;4.15;1.70;;;13.60;99.90;;;;;;5093312;28;20046;-56
2021/09/18 03:47:20;;;;;;;2.40;1.70;;;13.60;99.90;;;;;;5093122;28;20413;-56
2021/09/18 03:49:46;;;;;;;3.85;1.73;;;13.60;99.90;;;;;;5093214;28;20409;-56
2021/09/18 03:52:11;;;;;;;3.63;1.67;;;13.60;99.90;;;;;;5093179;28;20039;-56
2021/09/18 03:54:37;;;;;;;3.15;1.77;;;13.60;99.90;;;;;;5093255;28;20039;-57
2021/09/18 03:57:02;;;;;;;3.83;1.70;;;13.50;99.90;;;;;;5093335;28;20044;-56
2021/09/18 03:59:28;;;;;;;5.00;1.75;;;13.50;99.90;;;;;;5093388;28;20477;-56
2021/09/18 04:01:54;;;;;;;6.60;1.88;;;13.60;99.90;;;;;;5093017;28;20375;-56
2021/09/18 04:04:19;;;;;;;4.18;1.42;;;13.50;99.90;;;;;;5092955;28;20040;-57
2021/09/18 04:06:47;;;;;;;2.15;1.50;;;13.50;99.90;;;;;;5093080;28;20050;-56
2021/09/18 04:09:12;;;;;;;2.15;1.48;;;13.50;99.90;;;;;;5092860;28;20375;-56
2021/09/18 04:11:38;;;;;;;2.75;1.67;;;13.40;99.90;;;;;;5093345;28;20040;-56
2021/09/18 04:14:03;;;;;;;6.18;1.33;;;13.40;99.90;;;;;;5092720;28;20036;-56
2021/09/18 04:16:29;;;;;;;4.45;1.75;;;13.30;99.90;;;;;;5091709;28;20470;-56
2021/09/18 04:18:55;;;;;;;3.53;1.90;;;13.40;99.90;;;;;;5092908;28;20040;-57
2021/09/18 04:21:21;;;;;;;6.10;1.90;;;13.30;99.90;;;;;;5092880;28;20036;-56
2021/09/18 04:23:46;;;;;;;3.65;1.55;;;13.30;99.90;;;;;;5092699;28;20079;-57
2021/09/18 04:26:12;;;;;;;4.82;1.67;;;13.30;99.90;;;;;;5092646;28;20097;-56
2021/09/18 04:28:38;;;;;;;4.15;1.90;;;13.20;99.90;;;;;;5092289;28;20056;-56
2021/09/18 04:31:04;;;;;;;6.93;1.98;;;13.10;99.90;;;;;;5091253;28;20040;-56
2021/09/18 04:33:30;;;;;;;4.35;1.50;;;13.10;99.90;;;;;;5092445;28;20538;-57
2021/09/18 04:35:55;;;;;;;3.25;1.75;;;13.00;99.90;;;;;;5091070;28;20040;-56
2021/09/18 04:38:21;;;;;;;1.80;1.40;;;13.00;99.90;;;;;;5092253;28;20044;-56
2021/09/18 04:40:46;;;;;;;3.13;1.45;;;12.90;99.90;;;;;;5092743;28;20473;-56
2021/09/18 04:43:12;;;;;;;5.07;1.88;;;12.90;99.90;;;;;;5092262;28;20040;-56
2021/09/18 04:45:37;;;;;;;3.30;1.67;;;12.90;99.90;;;;;;5092331;28;20047;-56
2021/09/18 04:48:03;;;;;;;2.53;1.77;;;13.00;99.90;;;;;;5092445;28;20058;-56
2021/09/18 04:50:29;;;;;;;4.60;1.70;;;13.00;99.90;;;;;;5092230;28;20550;-56
2021/09/18 04:52:55;;;;;;;2.88;1.45;;;13.10;99.90;;;;;;5092136;28;20040;-56
2021/09/18 04:55:20;;;;;;;2.63;2.10;;;13.10;99.90;;;;;;5091967;28;20036;-56
2021/09/18 04:57:46;;;;;;;4.25;2.15;;;13.10;99.90;;;;;;5092154;28;20032;-56
2021/09/18 05:00:12;;;;;;;5.20;2.28;;;13.10;99.90;;;;;;5091860;28;20039;-56
2021/09/18 05:02:37;;;;;;;5.28;2.20;;;13.20;99.90;;;;;;5091002;28;20056;-56
2021/09/18 05:05:04;;;;;;;4.15;1.98;;;13.20;99.90;;;;;;5092179;28;20043;-56
2021/09/18 05:07:29;;;;;;;5.43;1.80;;;13.20;99.90;;;;;;5091881;28;20085;-56
2021/09/18 05:09:57;;;;;;;2.90;1.75;;;13.20;99.90;;;;;;5091839;28;20044;-57
2021/09/18 05:12:23;;;;;;;3.22;1.80;;;13.30;99.90;;;;;;5091891;28;20420;-56
2021/09/18 05:14:48;;;;;;;3.33;1.88;;;13.20;99.90;;;;;;5091816;28;20082;-57
2021/09/18 05:17:14;;;;;;;2.97;1.65;;;13.20;99.90;;;;;;5092153;28;20036;-56
2021/09/18 05:19:40;;;;;;;4.10;2.00;;;13.20;99.90;;;;;;5091794;28;20527;-56
2021/09/18 05:22:06;;;;;;;3.50;1.65;;;13.20;99.90;;;;;;5092096;28;20047;-56
2021/09/18 05:24:31;;;;;;;4.70;2.00;;;13.20;99.90;;;;;;5092244;28;20040;-56
2021/09/18 05:26:57;;;;;;;1.88;1.63;;;13.30;99.90;;;;;;5091658;28;20442;-55
2021/09/18 05:29:23;;;;;;;3.53;1.90;;;13.30;99.90;;;;;;5091680;28;20040;-56
2021/09/18 05:31:49;;;;;;;2.72;1.88;;;13.30;99.90;;;;;;5091825;28;20119;-55
2021/09/18 05:34:15;;;;;;;3.50;2.38;;;13.40;99.90;;;;;;5091728;28;20032;-56
2021/09/18 05:36:40;;;;;;;3.95;2.33;;;13.40;99.90;;;;;;5091777;28;20539;-56
2021/09/18 05:39:06;;;;;;;2.75;2.38;;;13.40;99.90;;;;;;5091694;28;20044;-57
2021/09/18 05:41:32;;;;;;;4.68;2.60;;;13.40;99.90;;;;;;5091864;28;20039;-56
2021/09/18 05:43:57;;;;;;;4.20;2.17;;;13.40;99.90;;;;;;5091471;28;20039;-56
2021/09/18 05:46:23;;;;;;;5.22;2.38;;;13.50;99.90;;;;;;5091747;28;20115;-56
2021/09/18 05:48:49;;;;;;;3.45;2.20;;;13.50;99.90;;;;;;5091680;28;20128;-56
2021/09/18 05:51:14;;;;;;;3.95;1.95;;;13.50;99.90;;;;;;5093397;28;20060;-56
2021/09/18 05:53:40;;;;;;;4.97;2.42;;;13.60;99.90;;;;;;5095418;28;20103;-56
2021/09/18 05:56:06;;;;;;;6.13;1.92;;;13.60;99.90;;;;;;5095381;28;20115;-56
2021/09/18 05:58:31;;;;;;;3.00;2.17;;;13.60;99.90;;;;;;5095172;28;20032;-56
2021/09/18 06:00:57;;;;;;;3.72;2.05;;;13.60;99.90;;;;;;5095692;28;20028;-56
2021/09/18 06:03:22;;;;;;;2.03;1.73;;;13.70;99.90;;;;;;5095547;28;20047;-56
2021/09/18 06:05:48;;;;;;;4.50;2.00;;;13.60;99.90;;;;;;5095510;28;20603;-56
2021/09/18 06:08:14;;;;;;;5.70;2.00;;;13.60;99.90;;;;;;5093937;28;20044;-56
2021/09/18 06:10:39;;;;;;;5.43;2.13;;;13.60;99.90;;;;;;5095310;28;20512;-56
2021/09/18 06:13:05;;;;;;;4.55;2.08;;;13.70;99.90;;;;;;5095064;28;20401;-56
2021/09/18 06:15:31;;;;;;;2.90;2.00;;;13.70;99.90;;;;;;5095129;28;20453;-56
2021/09/18 06:17:56;;;;;;;6.10;2.60;;;13.70;99.90;;;;;;5095214;28;20430;-56
2021/09/18 06:20:22;;;;;;;3.58;1.95;;;13.70;99.90;;;;;;5094886;28;20113;-56
2021/09/18 06:22:48;;;;;;;5.00;1.70;;;13.80;99.90;;;;;;5094772;28;20078;-56
2021/09/18 06:25:15;;;;;;;2.95;1.90;;;13.80;99.90;;;;;;5094724;28;20048;-56
2021/09/18 06:27:41;;;;;;;2.58;1.27;;;13.90;99.90;;;;;;5094624;28;20062;-56
2021/09/18 06:30:09;;;;;;;3.15;1.60;;;13.90;99.90;;;;;;5094989;28;20043;-56
2021/09/18 06:32:35;;;;;;;3.67;1.80;;;14.00;99.90;;;;;;5094862;28;20044;-56
2021/09/18 06:35:00;;;;;;;2.75;1.90;;;14.00;99.90;;;;;;5094830;28;20036;-56
2021/09/18 06:37:26;;;;;;;2.55;1.30;;;14.10;99.90;;;;;;5094750;28;20374;-57
2021/09/18 06:39:52;;;;;;;2.47;1.10;;;14.10;99.90;;;;;;5094473;28;20434;-56
2021/09/18 06:42:17;;;;;;;2.05;1.50;;;14.20;99.90;;;;;;5094507;28;20449;-56
2021/09/18 06:44:45;;;;;;;2.95;1.40;;;14.20;99.90;;;;;;5093245;28;20047;-56
2021/09/18 06:47:11;;;;;;;3.60;1.52;;;14.20;99.90;;;;;;5094520;28;20047;-56
2021/09/18 06:49:37;;;;;;;4.80;2.00;;;14.20;99.90;;;;;;5094486;28;20048;-56
2021/09/18 06:52:03;;;;;;;2.95;2.10;;;14.20;99.90;;;;;;5094555;28;20035;-56
2021/09/18 06:54:29;;;;;;;3.83;1.70;;;14.30;99.90;;;;;;5094647;28;20142;-56
2021/09/18 06:56:54;;;;;;;2.60;1.50;;;14.30;99.90;;;;;;5094291;28;20111;-56
2021/09/18 06:59:20;;;;;;;4.90;1.80;;;14.30;99.90;;;;;;5094410;28;20040;-56
2021/09/18 07:01:45;;;;;;;3.70;1.17;;;14.30;99.90;;;;;;5093998;28;20394;-56
2021/09/18 07:04:11;;;;;;;4.00;1.48;;;14.30;99.90;;;;;;5094497;28;20389;-56
2021/09/18 07:06:36;;;;;;;3.42;1.92;;;14.30;99.90;;;;;;5094142;28;20335;-56
2021/09/18 07:09:02;;;;;;;3.33;1.33;;;14.40;99.90;;;;;;5093949;28;20111;-56
2021/09/18 07:11:28;;;;;;;3.97;1.60;;;14.30;99.90;;;;;;5093906;28;20097;-56
2021/09/18 07:13:53;;;;;;;4.43;1.33;;;14.50;99.90;;;;;;5094206;28;20040;-56
2021/09/18 07:16:19;;;;;;;3.85;1.63;;;14.30;99.90;;;;;;5094063;28;20035;-56
2021/09/18 07:18:45;;;;;;;1.98;1.50;;;14.30;99.90;;;;;;5094052;28;20097;-56
2021/09/18 07:21:10;;;;;;;4.55;1.52;;;14.40;99.90;;;;;;5093705;28;20044;-57
2021/09/18 07:23:36;;;;;;;7.68;1.67;;;14.40;99.90;;;;;;5093880;28;20118;-56
2021/09/18 07:26:03;;;;;;;2.95;1.70;;;14.50;99.90;;;;;;5093799;28;20461;-56
2021/09/18 07:28:29;;;;;;;1.73;1.20;;;14.50;99.90;;;;;;5093664;28;20494;-56
2021/09/18 07:30:55;;;;;;;3.83;1.50;;;14.60;99.90;;;;;;5093598;28;20478;-56
2021/09/18 07:33:20;;;;;;;4.32;1.42;;;14.90;99.90;;;;;;5093904;28;20044;-56
2021/09/18 07:35:46;;;;;;;2.40;1.10;;;15.20;99.90;;;;;;5093813;28;20035;-57
2021/09/18 07:38:13;;;;;;;4.88;1.40;;;15.70;99.90;;;;;;5093554;28;20315;-56
2021/09/18 07:40:39;;;;;;;3.70;1.33;;;16.10;99.90;;;;;;5093461;28;20478;-56
2021/09/18 07:43:04;;;;;;;3.42;1.30;;;16.60;99.90;;;;;;5093538;28;20035;-56
2021/09/18 07:45:30;;;;;;;2.05;1.02;;;16.90;99.90;;;;;;5093382;28;20055;-56
2021/09/18 07:47:55;;;;;;;6.43;1.33;;;17.20;99.90;;;;;;5092372;28;20048;-57
2021/09/18 07:50:22;;;;;;;5.30;1.08;;;17.50;99.90;;;;;;5093258;28;20039;-57
2021/09/18 07:52:47;;;;;;;1.63;0.90;;;17.80;99.90;;;;;;5093233;28;20040;-56
2021/09/18 07:55:13;;;;;;;1.55;0.77;;;18.00;99.90;;;;;;5093076;28;20035;-56
2021/09/18 07:57:39;;;;;;;3.80;0.90;;;18.30;99.90;;;;;;5091890;28;20115;-56
2021/09/18 08:00:06;;;;;;;5.25;1.08;;;18.40;99.90;;;;;;5093101;28;20393;-56
2021/09/18 08:02:32;;;;;;;2.00;0.90;;;18.70;99.90;;;;;;5093256;28;20044;-56
2021/09/18 08:04:57;;;;;;;2.83;0.80;;;19.00;99.90;;;;;;5093051;28;20394;-56
2021/09/18 08:07:23;;;;;;;4.05;0.90;;;19.20;99.90;;;;;;5092843;28;20035;-56
2021/09/18 08:09:49;;;;;;;2.08;0.70;;;19.50;99.90;;;;;;5092813;28;20040;-57
2021/09/18 08:12:16;;;;;;;1.58;0.93;;;19.90;99.90;;;;;;5092929;28;20036;-56
2021/09/18 08:14:42;;;;;;;2.00;0.60;;;20.20;99.90;;;;;;5092304;28;20075;-57
2021/09/18 08:17:08;;;;;;;2.50;0.70;;;20.30;99.90;;;;;;5092828;28;20036;-57
2021/09/18 08:19:34;;;;;;;3.63;0.63;;;20.40;99.90;;;;;;5092521;28;20596;-57
2021/09/18 08:22:00;;;;;;;3.38;0.70;;;20.50;99.90;;;;;;5092876;28;20131;-57
2021/09/18 08:24:25;;;;;;;5.35;0.70;;;20.80;99.90;;;;;;5091855;28;20056;-57
2021/09/18 08:26:51;;;;;;;2.47;0.50;;;20.80;99.90;;;;;;5092839;28;20040;-57
2021/09/18 08:29:16;;;;;;;1.52;0.65;;;20.90;99.90;;;;;;5092230;28;20052;-56
2021/09/18 08:31:42;;;;;;;1.98;0.60;;;21.00;99.90;;;;;;5092629;28;20036;-56
2021/09/18 08:34:09;;;;;;;2.28;0.80;;;21.20;99.90;;;;;;5092504;28;20047;-57
2021/09/18 08:36:34;;;;;;;1.35;0.77;;;21.20;99.90;;;;;;5092412;28;20059;-56
2021/09/18 08:39:00;;;;;;;1.77;0.60;;;21.50;99.90;;;;;;5092336;28;20047;-56
2021/09/18 08:41:29;;;;;;;4.20;0.60;;;21.60;99.90;;;;;;5092528;28;20482;-56
2021/09/18 08:43:55;;;;;;;1.92;0.70;;;21.60;99.90;;;;;;5092200;28;20512;-57
2021/09/18 08:46:22;;;;;;;4.10;0.85;;;21.50;99.90;;;;;;5092274;28;20118;-56
2021/09/18 08:48:48;;;;;;;2.35;0.65;;;21.60;99.90;;;;;;5092304;28;20123;-57
2021/09/18 08:51:14;;;;;;;4.00;0.93;;;21.80;99.90;;;;;;5092147;28;20044;-56
2021/09/18 08:53:40;;;;;;;3.90;0.90;;;22.10;99.90;;;;;;5092414;28;20054;-56
2021/09/18 08:56:06;;;;;;;2.95;0.60;;;22.30;99.90;;;;;;5092121;28;20440;-56
2021/09/18 08:58:31;;;;;;;2.42;0.60;;;22.40;99.90;;;;;;5092304;28;20036;-57
2021/09/18 09:00:58;;;;;;;2.72;0.70;;;22.70;99.90;;;;;;5092097;28;20039;-57
2021/09/18 09:03:36;;;;;;;1.60;0.63;;;22.80;99.90;;;;;;5092252;28;20035;-56
2021/09/18 09:06:04;;;;;;;2.08;0.70;;;22.80;99.90;;;;;;5092065;28;20392;-57
2021/09/18 09:08:30;;;;;;;1.83;0.70;;;23.00;99.90;;;;;;5092361;28;20047;-56
2021/09/18 09:10:56;;;;;;;3.53;0.57;;;22.90;99.90;;;;;;5092156;28;20050;-56
2021/09/18 09:13:23;;;;;;;3.17;0.63;;;23.00;99.90;;;;;;5092034;28;20040;-57
2021/09/18 09:16:04;;;;;;;1.85;0.55;;;23.00;99.90;;;;;;5092014;28;20033;-57
2021/09/18 09:18:36;;;;;;;7.57;1.00;;;23.20;99.90;;;;;;5090762;28;20072;-57
2021/09/18 09:21:29;;;;;;;2.08;0.80;;;22.90;99.90;;;;;;5090983;28;20048;-58
2021/09/18 09:24:16;;;;;;;2.33;0.60;;;22.90;99.90;;;;;;5091978;28;20040;-57
2021/09/18 09:27:02;;;;;;;5.00;0.80;;;22.90;99.90;;;;;;5094842;28;20156;-57
2021/09/18 09:29:47;;;;;;;6.63;1.02;;;22.80;99.90;;;;;;5095847;28;20105;-57
2021/09/18 09:32:32;;;;;;;3.40;1.30;;;22.70;99.90;;;;;;5095995;28;21928;-57
2021/09/18 09:35:00;;;;;;;3.33;0.80;;;22.40;99.90;;;;;;5094933;28;20044;-57
2021/09/18 09:37:27;;;;;;;3.88;0.52;;;22.10;99.90;;;;;;5095846;28;20040;-57
2021/09/18 09:40:02;;;;;;;3.45;0.70;;;22.00;99.90;;;;;;5095933;28;20039;-57
2021/09/18 09:42:30;;;;;;;2.75;0.60;;;21.60;99.90;;;;;;5096084;28;20047;-57
2021/09/18 09:45:13;;;;;;;4.28;0.88;;;21.60;99.90;;;;;;5096136;28;20052;-57
2021/09/18 09:47:39;;;;;;;108.80;7.88;;;21.30;99.90;;;;;;5095718;28;20036;-57
2021/09/18 09:50:05;;;;;;;5.53;0.77;;;21.30;99.90;;;;;;5095527;28;20074;-56
2021/09/18 09:52:33;;;;;;;2.88;0.80;;;21.10;99.90;;;;;;5095676;28;20505;-57
2021/09/18 09:55:10;;;;;;;2.67;0.50;;;21.10;99.90;;;;;;5094498;28;20145;-57
2021/09/18 09:57:36;;;;;;;4.10;0.80;;;21.10;99.90;;;;;;5095695;28;20092;-56
2021/09/18 10:00:10;;;;;;;1.50;0.80;;;21.00;99.90;;;;;;5095493;28;20122;-57
2021/09/18 10:02:37;;;;;;;1.92;0.90;;;20.90;99.90;;;;;;5095631;28;20040;-57
2021/09/18 10:05:05;;;;;;;3.35;1.00;;;20.80;99.90;;;;;;5095626;28;20044;-57
2021/09/18 10:07:31;;;;;;;6.75;1.52;;;20.80;99.90;;;;;;5095524;28;20040;-56
2021/09/18 10:09:58;;;;;;;3.55;0.80;;;20.80;99.90;;;;;;5095507;28;20047;-57
2021/09/18 10:12:25;;;;;;;4.35;0.80;;;20.70;99.90;;;;;;5095294;28;20047;-57
2021/09/18 10:14:54;;;;;;;2.35;0.90;;;20.80;99.90;;;;;;5095203;28;20075;-57
2021/09/18 10:17:20;;;;;;;6.57;0.80;;;20.70;99.90;;;;;;5095307;28;20137;-56
2021/09/18 10:25:23;;;;;;;3.83;1.50;;;20.90;99.90;;;;;;5094883;28;20044;-56
2021/09/18 10:28:09;;;;;;;2.80;1.48;;;20.80;99.90;;;;;;5095256;28;20101;-56
2021/09/18 10:30:40;;;;;;;3.00;1.35;;;20.90;99.90;;;;;;5095016;28;20059;-56
2021/09/18 10:33:07;;;;;;;2.90;1.27;;;20.80;99.90;;;;;;5093943;28;20048;-57
2021/09/18 10:35:54;;;;;;;4.40;1.60;;;20.90;99.90;;;;;;5094698;28;20089;-57
2021/09/18 10:38:27;;;;;;;4.53;1.30;;;20.80;99.90;;;;;;5091854;28;20093;-57
2021/09/18 10:41:04;;;;;;;4.00;1.15;;;20.80;99.90;;;;;;5094938;28;20032;-57
2021/09/18 10:43:37;;;;;;;4.22;1.33;;;20.80;99.90;;;;;;5093898;28;20123;-56
2021/09/18 10:46:04;;;;;;;3.20;1.40;;;20.90;99.90;;;;;;5094826;28;20064;-57
2021/09/18 10:48:49;;;;;;;2.65;1.33;;;20.80;99.90;;;;;;5094975;28;20043;-56
2021/09/18 10:51:36;;;;;;;2.80;1.50;;;20.90;99.90;;;;;;5094565;28;20047;-56
2021/09/18 10:54:03;;;;;;;4.80;1.83;;;20.80;99.90;;;;;;5094105;28;20068;-57
2021/09/18 10:56:55;;;;;;;4.03;1.42;;;20.90;99.90;;;;;;5093362;28;20036;-56
2021/09/18 10:59:43;;;;;;;2.80;1.83;;;21.10;99.90;;;;;;5076388;28;20123;-57
2021/09/18 11:02:30;;;;;;;4.22;1.50;;;21.10;99.90;;;;;;5094408;28;20032;-57
2021/09/18 11:05:07;;;;;;;3.58;2.08;;;21.10;99.90;;;;;;5093226;28;20039;-56
2021/09/18 11:07:39;;;;;;;2.92;1.75;;;21.10;99.90;;;;;;5094319;28;20048;-57
2021/09/18 11:10:06;;;;;;;4.45;1.33;;;21.10;99.90;;;;;;5094165;28;20368;-57
2021/09/18 11:12:32;;;;;;;6.78;1.42;;;21.00;99.90;;;;;;5094090;28;20120;-57
2021/09/18 11:15:03;;;;;;;3.83;1.17;;;21.10;99.90;;;;;;5094093;28;20047;-57
2021/09/18 11:17:33;;;;;;;2.10;1.35;;;21.30;99.90;;;;;;5093066;28;20370;-57
2021/09/18 11:20:13;;;;;;;4.00;1.20;;;21.20;99.90;;;;;;5094003;28;20036;-57
2021/09/18 11:22:39;;;;;;;4.13;1.38;;;21.30;99.90;;;;;;5093859;28;20128;-57
2021/09/18 11:25:33;;;;;;;2.92;1.30;;;21.10;99.90;;;;;;5092605;28;20504;-57
2021/09/18 11:28:07;;;;;;;3.03;1.63;;;21.30;99.90;;;;;;5093817;28;20056;-57
2021/09/18 11:30:53;;;;;;;1.88;1.17;;;21.30;99.90;;;;;;5093946;28;20371;-56
2021/09/18 11:33:21;;;;;;;1.77;1.00;;;21.40;99.90;;;;;;5093574;28;20544;-56
2021/09/18 11:36:02;;;;;;;4.63;1.30;;;21.60;99.90;;;;;;5093615;28;20047;-57
2021/09/18 11:38:30;;;;;;;3.55;0.95;;;21.70;99.90;;;;;;5093722;28;20036;-57
2021/09/18 11:41:07;;;;;;;3.22;0.95;;;21.80;99.90;;;;;;5093920;28;20071;-57
2021/09/18 11:43:33;;;;;;;4.57;1.17;;;22.10;99.90;;;;;;5093596;28;20103;-56
2021/09/18 11:46:00;;;;;;;3.40;1.30;;;22.20;99.90;;;;;;5093359;28;20040;-57
2021/09/18 11:48:29;;;;;;;2.22;1.23;;;22.20;99.90;;;;;;5092328;28;20043;-57
2021/09/18 11:50:55;;;;;;;3.95;1.92;;;22.40;99.90;;;;;;5093742;28;20048;-57
2021/09/18 11:53:21;;;;;;;3.72;1.10;;;22.30;99.90;;;;;;5093346;28;20112;-57
2021/09/18 11:55:48;;;;;;;3.90;1.33;;;22.40;99.90;;;;;;5093431;28;20549;-57
2021/09/18 11:58:24;;;;;;;2.10;1.30;;;22.50;99.90;;;;;;5093254;28;20028;-57
2021/09/18 12:00:53;;;;;;;2.70;1.10;;;22.40;99.90;;;;;;5093241;28;20036;-57
2021/09/18 12:03:21;;;;;;;2.28;0.95;;;22.50;99.90;;;;;;5093302;28;20044;-57
2021/09/18 12:05:56;;;;;;;1.67;1.35;;;22.50;99.90;;;;;;5093269;28;20442;-57
2021/09/18 12:08:24;;;;;;;3.25;1.35;;;22.40;99.90;;;;;;5093028;28;20489;-57
2021/09/18 12:10:52;;;;;;;2.70;1.40;;;22.40;99.90;;;;;;5093411;28;20051;-57
2021/09/18 12:13:19;;;;;;;2.37;1.10;;;22.50;99.90;;;;;;5091773;28;20173;-57
2021/09/18 12:15:45;;;;;;;3.25;1.60;;;22.20;99.90;;;;;;5092977;28;20449;-57
2021/09/18 12:18:32;;;;;;;1.75;1.30;;;22.20;99.90;;;;;;5092733;28;20063;-57
2021/09/18 12:21:04;;;;;;;2.90;1.38;;;22.40;99.90;;;;;;5092850;28;20036;-57
2021/09/18 12:23:31;;;;;;;4.03;0.98;;;22.40;99.90;;;;;;5093014;28;20052;-56
2021/09/18 12:26:02;;;;;;;2.38;1.40;;;22.40;99.90;;;;;;5092677;28;20039;-57
2021/09/18 12:28:30;;;;;;;2.58;1.55;;;22.40;99.90;;;;;;5091300;28;20060;-56
2021/09/18 12:30:56;;;;;;;1.95;1.40;;;22.20;99.90;;;;;;5092740;28;20359;-57
2021/09/18 12:33:30;;;;;;;1.65;1.42;;;22.40;99.90;;;;;;5092592;28;20032;-57
2021/09/18 12:36:04;;;;;;;3.28;1.75;;;22.50;99.90;;;;;;5092436;28;20044;-57
2021/09/18 12:38:30;;;;;;;4.15;2.10;;;22.40;99.90;;;;;;5092429;28;20043;-57
2021/09/18 12:41:19;;;;;;;3.28;1.90;;;22.30;99.90;;;;;;5092707;28;20039;-57
2021/09/18 12:43:59;;;;;;;3.63;2.13;;;22.20;99.90;;;;;;5049966;28;20051;-57
2021/09/18 12:46:26;;;;;;;2.60;2.20;;;22.00;99.90;;;;;;5050189;28;20059;-57
2021/09/18 12:49:00;;;;;;;6.63;1.90;;;22.00;99.90;;;;;;5033186;28;20499;-57
2021/09/18 12:51:27;;;;;;;4.20;2.30;;;22.10;99.90;;;;;;5044862;28;20037;-57
2021/09/18 12:53:54;;;;;;;2.80;2.10;;;22.00;99.90;;;;;;5029895;28;20072;-57